Time;durP1;ratioP1;P1;durP2;ratioP2;P2;SDS_P1;SDS_P2;PMS_P1;PMS_P2;Temp;Humidity;BMP_temperature;BMP_pressure;BME280_temperature;BME280_humidity;BME280_pressure;Samples;Min_cycle;Max_cycle;Signal;HPM_P1;HPM_P2
2021/05/14 00:00:33;;;;;;;19.50;5.80;;;11.70;99.90;;;12.24;100.00;99923.81;4985296;28;20196;-75
2021/05/14 00:03:00;;;;;;;23.13;6.25;;;11.70;99.90;;;12.22;100.00;99921.25;4995265;28;20223;-75
2021/05/14 00:05:27;;;;;;;28.00;8.57;;;11.70;99.90;;;12.23;100.00;99920.34;4979640;28;20686;-75
2021/05/14 00:07:53;;;;;;;21.00;6.50;;;11.70;99.90;;;12.24;100.00;99921.19;4979896;28;20215;-75
2021/05/14 00:10:22;;;;;;;23.13;6.13;;;11.70;99.90;;;12.27;100.00;99921.84;4979380;28;20205;-75
2021/05/14 00:12:49;;;;;;;13.02;4.05;;;11.70;99.90;;;12.27;100.00;99927.09;4981493;28;20211;-74
2021/05/14 00:15:17;;;;;;;13.43;4.25;;;11.70;99.90;;;12.28;100.00;99927.94;4978781;28;20203;-75
2021/05/14 00:17:43;;;;;;;10.13;3.42;;;11.70;99.90;;;12.26;100.00;99922.78;4981704;28;20187;-73
2021/05/14 00:20:12;;;;;;;9.55;3.03;;;11.70;99.90;;;12.28;100.00;99923.56;4980284;28;20722;-75
2021/05/14 00:22:39;;;;;;;12.25;3.78;;;11.70;99.90;;;12.32;100.00;99930.28;4981256;28;20227;-75
2021/05/14 00:25:08;;;;;;;10.25;2.95;;;11.70;99.90;;;12.30;100.00;99918.22;4981988;28;20570;-74
2021/05/14 00:27:35;;;;;;;7.40;2.33;;;11.70;99.90;;;12.28;100.00;99920.94;4981602;28;20190;-75
2021/05/14 00:30:02;;;;;;;6.30;2.40;;;11.70;99.90;;;12.25;100.00;99922.88;4968590;28;20248;-74
2021/05/14 00:32:28;;;;;;;6.50;2.20;;;11.70;99.90;;;12.22;100.00;99923.06;4958249;28;20212;-75
2021/05/14 00:34:54;;;;;;;5.72;2.10;;;11.70;99.90;;;12.19;100.00;99918.81;4969990;28;20203;-75
2021/05/14 00:37:23;;;;;;;5.93;2.15;;;11.70;99.90;;;12.17;100.00;99918.06;4992493;28;20203;-74
2021/05/14 00:39:49;;;;;;;5.43;2.17;;;11.70;99.90;;;12.17;100.00;99925.91;4976137;28;20202;-75
2021/05/14 00:42:15;;;;;;;6.20;2.17;;;11.60;99.90;;;12.16;100.00;99924.25;4974554;28;20207;-74
2021/05/14 00:44:45;;;;;;;5.55;1.83;;;11.70;99.90;;;12.17;100.00;99920.69;4974915;28;20707;-75
2021/05/14 00:47:14;;;;;;;5.28;1.77;;;11.60;99.90;;;12.19;100.00;99926.69;4976560;28;20196;-75
2021/05/14 00:49:43;;;;;;;6.80;2.33;;;11.60;99.90;;;12.20;100.00;99919.66;4980703;28;20543;-76
2021/05/14 00:52:12;;;;;;;9.00;2.50;;;11.60;99.90;;;12.21;100.00;99919.56;4978872;28;20195;-74
2021/05/14 00:54:41;;;;;;;4.57;1.98;;;11.70;99.90;;;12.21;100.00;99916.09;4976201;28;20195;-74
2021/05/14 00:57:09;;;;;;;5.63;2.10;;;11.70;99.90;;;12.18;100.00;99917.13;4977168;28;20259;-76
2021/05/14 00:59:36;;;;;;;4.95;1.80;;;11.60;99.90;;;12.17;100.00;99918.06;4971379;28;20199;-75
2021/05/14 01:02:02;;;;;;;5.05;2.10;;;11.60;99.90;;;12.15;100.00;99921.72;4975485;28;20215;-75
2021/05/14 01:04:29;;;;;;;6.25;2.25;;;11.60;99.90;;;12.14;100.00;99914.78;4978962;28;20184;-74
2021/05/14 01:06:55;;;;;;;6.05;2.10;;;11.60;99.90;;;12.15;100.00;99926.97;4977068;28;20195;-76
2021/05/14 01:09:22;;;;;;;5.07;1.80;;;11.60;99.90;;;12.17;100.00;99925.09;4977105;28;20191;-76
2021/05/14 01:11:49;;;;;;;3.85;1.73;;;11.60;99.90;;;12.16;100.00;99923.38;4975501;28;20204;-74
2021/05/14 01:14:16;;;;;;;5.80;2.08;;;11.60;99.90;;;12.17;100.00;99920.69;4977682;28;20211;-74
2021/05/14 01:16:43;;;;;;;4.88;1.77;;;11.60;99.90;;;12.16;100.00;99921.63;4991994;28;20202;-75
2021/05/14 01:19:09;;;;;;;5.05;1.90;;;11.60;99.90;;;12.19;100.00;99924.06;4992368;28;20291;-74
2021/05/14 01:21:37;;;;;;;5.13;1.90;;;11.60;99.90;;;12.19;100.00;99918.00;4991384;28;20570;-74
2021/05/14 01:24:05;;;;;;;4.90;1.80;;;11.60;99.90;;;12.21;100.00;99922.19;4989765;28;20220;-75
2021/05/14 01:26:31;;;;;;;3.63;1.70;;;11.60;99.90;;;12.19;100.00;99924.06;4977024;28;20215;-75
2021/05/14 01:28:59;;;;;;;4.22;1.80;;;11.60;99.90;;;12.19;100.00;99920.63;4975073;28;20199;-75
2021/05/14 01:31:26;;;;;;;4.70;1.80;;;11.60;99.90;;;12.15;100.00;99913.84;4968815;28;20249;-75
2021/05/14 01:33:52;;;;;;;3.65;1.50;;;11.60;99.90;;;12.14;100.00;99918.22;4976860;28;20258;-74
2021/05/14 01:36:19;;;;;;;4.82;1.65;;;11.60;99.90;;;12.14;100.00;99909.53;4977076;28;20183;-75
2021/05/14 01:38:47;;;;;;;3.65;1.38;;;11.60;99.90;;;12.16;100.00;99918.16;4989912;28;20195;-75
2021/05/14 01:41:13;;;;;;;3.88;1.50;;;11.60;99.90;;;12.14;100.00;99905.13;4975419;28;20203;-75
2021/05/14 01:43:40;;;;;;;2.47;1.20;;;11.60;99.90;;;12.14;100.00;99904.28;4991262;28;20215;-75
2021/05/14 01:46:07;;;;;;;4.15;1.40;;;11.60;99.90;;;12.12;100.00;99906.97;4975917;28;20192;-75
2021/05/14 01:48:34;;;;;;;4.15;1.58;;;11.60;99.90;;;12.09;100.00;99903.72;4976850;28;20195;-75
2021/05/14 01:51:12;;;;;;;5.07;1.50;;;11.50;99.90;;;12.08;100.00;99905.47;4974745;28;20203;-74
2021/05/14 01:53:38;;;;;;;4.05;1.60;;;11.50;99.90;;;12.05;100.00;99904.81;4975945;28;20285;-75
2021/05/14 01:56:05;;;;;;;3.88;1.50;;;11.50;99.90;;;11.99;100.00;99906.00;4975761;28;20204;-75
2021/05/14 01:58:32;;;;;;;4.07;1.50;;;11.40;99.90;;;11.98;100.00;99899.06;4976839;28;20195;-76
2021/05/14 02:00:58;;;;;;;4.30;1.60;;;11.40;99.90;;;12.01;100.00;99898.88;4971038;28;20199;-75
2021/05/14 02:03:25;;;;;;;3.40;1.48;;;11.40;99.90;;;12.04;100.00;99892.63;4977113;28;20266;-75
2021/05/14 02:05:51;;;;;;;3.72;1.50;;;11.40;99.90;;;12.02;99.99;99895.31;4977341;28;20279;-75
2021/05/14 02:08:18;;;;;;;5.43;1.80;;;11.40;99.90;;;12.03;99.95;99890.94;4975642;28;20208;-74
2021/05/14 02:10:45;;;;;;;3.45;1.30;;;11.40;99.90;;;11.99;100.00;99895.50;4974939;28;20754;-76
2021/05/14 02:13:12;;;;;;;4.13;1.60;;;11.40;99.90;;;11.98;99.96;99892.97;4976306;28;20225;-74
2021/05/14 02:15:39;;;;;;;3.63;1.50;;;11.40;99.90;;;12.03;100.00;99896.19;4976822;28;20242;-75
2021/05/14 02:18:06;;;;;;;3.05;1.42;;;11.50;99.90;;;12.04;100.00;99893.47;4978497;28;20202;-75
2021/05/14 02:20:33;;;;;;;4.05;1.50;;;11.40;99.90;;;12.03;99.97;99891.78;4978406;28;20199;-75
2021/05/14 02:23:00;;;;;;;4.47;1.40;;;11.40;99.90;;;12.04;100.00;99896.09;4979982;28;20223;-76
2021/05/14 02:25:26;;;;;;;3.50;1.40;;;11.40;99.90;;;12.02;99.85;99895.31;4980297;28;20192;-75
2021/05/14 02:27:52;;;;;;;5.55;1.67;;;11.40;99.90;;;12.03;99.68;99894.41;4977544;28;20211;-75
2021/05/14 02:30:21;;;;;;;4.47;1.50;;;11.40;99.90;;;12.05;99.78;99900.41;4967771;28;20195;-75
2021/05/14 02:32:47;;;;;;;4.53;1.67;;;11.50;99.90;;;12.01;99.53;99892.78;4975559;28;20578;-75
2021/05/14 02:35:14;;;;;;;4.20;1.60;;;11.40;99.90;;;12.05;99.80;99900.41;4975152;28;20204;-75
2021/05/14 02:37:41;;;;;;;6.32;1.90;;;11.40;99.90;;;12.08;99.90;99896.75;4975791;28;20207;-74
2021/05/14 02:40:10;;;;;;;4.38;1.65;;;11.50;99.90;;;12.10;99.89;99900.16;4993442;28;20200;-75
2021/05/14 02:42:37;;;;;;;5.32;1.90;;;11.50;99.90;;;12.06;99.73;99896.00;4979083;28;20219;-75
2021/05/14 02:45:06;;;;;;;5.32;1.80;;;11.50;99.90;;;12.03;99.54;99889.16;4981821;28;20195;-75
2021/05/14 02:47:35;;;;;;;4.55;1.60;;;11.40;99.90;;;12.04;99.73;99888.22;4995614;28;20743;-75
2021/05/14 02:50:04;;;;;;;4.57;1.63;;;11.40;99.90;;;12.08;99.50;99894.13;4974681;28;20188;-77
2021/05/14 02:52:30;;;;;;;5.20;2.00;;;11.40;99.90;;;12.07;99.29;99895.91;4973358;28;20219;-74
2021/05/14 02:54:56;;;;;;;5.15;1.85;;;11.40;99.90;;;12.12;99.31;99896.47;4993310;28;20251;-75
2021/05/14 02:57:23;;;;;;;5.93;2.03;;;11.50;99.90;;;12.13;99.22;99897.34;4975490;28;20202;-75
2021/05/14 02:59:49;;;;;;;6.18;2.17;;;11.50;99.90;;;12.11;98.74;99900.06;4979449;28;20736;-74
2021/05/14 03:02:18;;;;;;;6.97;2.08;;;11.50;99.90;;;12.11;98.94;99905.28;4968765;28;20207;-75
2021/05/14 03:04:45;;;;;;;6.75;1.98;;;11.50;99.90;;;12.12;98.93;99901.72;4977431;28;20199;-75
2021/05/14 03:07:13;;;;;;;4.95;2.20;;;11.50;99.90;;;12.10;98.77;99898.38;4977348;28;20215;-75
2021/05/14 03:09:39;;;;;;;5.82;1.90;;;11.50;99.90;;;12.07;98.71;99898.53;4978669;28;20187;-76
2021/05/14 03:12:06;;;;;;;5.70;2.20;;;11.50;99.90;;;12.07;98.88;99898.53;4977600;28;20250;-75
2021/05/14 03:14:33;;;;;;;5.68;2.10;;;11.40;99.90;;;12.08;98.55;99899.38;4979208;28;20209;-75
2021/05/14 03:17:00;;;;;;;6.80;2.05;;;11.40;99.90;;;12.07;98.49;99902.94;4979464;28;20203;-74
2021/05/14 03:19:26;;;;;;;6.68;2.50;;;11.40;99.90;;;12.06;98.55;99898.63;4978941;28;20680;-76
2021/05/14 03:21:54;;;;;;;6.97;2.28;;;11.40;99.90;;;12.07;98.28;99903.78;4977513;28;20680;-74
2021/05/14 03:24:20;;;;;;;5.20;2.10;;;11.40;99.90;;;12.05;98.45;99903.03;4978291;28;20673;-74
2021/05/14 03:26:49;;;;;;;8.75;2.55;;;11.40;99.90;;;12.06;98.15;99899.47;4978024;28;20192;-75
2021/05/14 03:29:15;;;;;;;7.10;2.58;;;11.40;99.90;;;12.05;98.46;99900.41;4976992;28;20237;-75
2021/05/14 03:31:42;;;;;;;6.53;2.38;;;11.40;99.90;;;12.04;98.13;99901.31;4976533;28;20215;-74
2021/05/14 03:34:08;;;;;;;7.50;2.33;;;11.40;99.90;;;12.04;98.13;99900.50;4976346;28;20292;-75
2021/05/14 03:36:34;;;;;;;6.97;2.35;;;11.40;99.90;;;12.03;98.38;99907.53;4993029;28;20214;-76
2021/05/14 03:39:08;;;;;;;6.22;2.10;;;11.40;99.90;;;12.00;98.08;99897.22;4978687;28;20597;-77
2021/05/14 03:41:45;;;;;;;5.93;2.00;;;11.50;99.90;;;11.97;98.15;99907.84;4998819;28;20243;-76
2021/05/14 03:44:11;;;;;;;6.60;2.20;;;11.40;99.90;;;11.96;97.86;99900.94;4998848;28;20211;-77
2021/05/14 03:46:38;;;;;;;5.78;2.10;;;11.40;99.90;;;11.97;98.12;99907.84;4984115;28;20570;-76
2021/05/14 03:49:05;;;;;;;8.35;2.20;;;11.40;99.90;;;11.96;98.24;99903.53;4980726;28;20207;-76
2021/05/14 03:51:33;;;;;;;6.28;2.17;;;11.40;99.90;;;11.96;97.94;99911.41;4998277;28;20188;-75
2021/05/14 03:54:01;;;;;;;5.90;1.90;;;11.40;99.90;;;11.97;97.82;99909.66;4981998;28;20237;-76
2021/05/14 03:56:27;;;;;;;5.80;1.90;;;11.40;99.90;;;11.96;97.77;99907.94;4998561;28;20203;-75
2021/05/14 03:58:53;;;;;;;6.90;2.03;;;11.40;99.90;;;11.98;97.93;99911.31;4997213;28;20253;-75
2021/05/14 04:01:20;;;;;;;4.90;1.80;;;11.40;99.90;;;11.96;97.73;99910.56;4997260;28;20225;-75
2021/05/14 04:03:46;;;;;;;4.85;1.80;;;11.40;99.90;;;11.93;97.69;99911.59;4979538;28;20223;-76
2021/05/14 04:06:13;;;;;;;4.95;1.98;;;11.40;99.90;;;11.94;97.85;99910.66;4982105;28;20215;-76
2021/05/14 04:08:39;;;;;;;5.82;1.98;;;11.40;99.90;;;12.00;98.07;99912.94;4996677;28;20198;-74
2021/05/14 04:11:25;;;;;;;6.82;2.30;;;11.40;99.90;;;12.01;97.74;99908.53;4981842;28;20187;-75
2021/05/14 04:16:36;;;;;;;5.07;2.03;;;11.40;99.90;;;12.04;97.64;99903.94;4976798;28;20218;-76
2021/05/14 04:19:03;;;;;;;5.18;2.00;;;11.50;99.90;;;12.06;97.69;99906.47;4981151;28;20254;-75
2021/05/14 04:21:29;;;;;;;5.78;1.77;;;11.50;99.90;;;12.04;97.58;99903.94;4997132;28;20253;-75
2021/05/14 04:23:55;;;;;;;6.18;1.70;;;11.50;99.90;;;12.04;97.51;99917.06;4983191;28;20241;-75
2021/05/14 04:26:22;;;;;;;5.03;1.90;;;11.50;99.90;;;12.05;97.52;99910.91;4998562;28;20685;-76
2021/05/14 04:28:49;;;;;;;4.90;1.95;;;11.50;99.90;;;12.06;97.50;99914.34;4986255;28;20298;-75
2021/05/14 04:31:15;;;;;;;4.97;1.90;;;11.50;99.90;;;12.08;97.58;99913.34;4969604;28;20212;-75
2021/05/14 04:33:41;;;;;;;6.38;2.00;;;11.50;99.90;;;12.09;97.53;99912.41;4963122;28;20290;-74
2021/05/14 04:36:08;;;;;;;5.80;1.77;;;11.50;99.90;;;12.01;97.08;99908.53;4962065;28;20671;-74
2021/05/14 04:38:34;;;;;;;5.00;1.67;;;11.50;99.90;;;11.98;97.24;99920.03;4964853;28;20215;-76
2021/05/14 04:41:00;;;;;;;5.55;1.90;;;11.40;99.90;;;11.94;97.48;99905.41;4963650;29;20271;-75
2021/05/14 04:43:27;;;;;;;5.90;2.05;;;11.40;99.90;;;11.96;97.54;99911.41;4977942;28;20597;-75
2021/05/14 04:45:54;;;;;;;5.80;2.03;;;11.40;99.90;;;11.95;97.72;99914.97;4978594;28;20290;-75
2021/05/14 04:48:20;;;;;;;5.35;1.98;;;11.40;99.90;;;11.96;97.50;99915.81;4976505;28;20204;-75
2021/05/14 04:50:47;;;;;;;5.95;1.92;;;11.40;99.90;;;11.95;97.70;99922.84;4979077;28;20282;-75
2021/05/14 04:53:14;;;;;;;7.18;2.15;;;11.40;99.90;;;11.95;97.64;99922.00;4981520;28;20274;-77
2021/05/14 04:55:41;;;;;;;5.95;2.00;;;11.40;99.90;;;11.95;97.29;99924.59;4976447;28;20199;-74
2021/05/14 04:58:08;;;;;;;6.40;2.10;;;11.40;99.90;;;11.92;97.46;99928.22;4976501;28;20204;-75
2021/05/14 05:00:35;;;;;;;7.45;2.50;;;11.30;99.90;;;11.91;97.24;99930.94;4974711;28;20188;-74
2021/05/14 05:03:02;;;;;;;6.45;2.20;;;11.30;99.90;;;11.92;97.34;99933.47;4974164;28;20756;-74
2021/05/14 05:05:30;;;;;;;7.68;2.50;;;11.40;99.90;;;11.91;97.38;99923.94;5004030;28;20195;-75
2021/05/14 05:07:56;;;;;;;6.05;2.38;;;11.30;99.90;;;11.88;97.39;99921.50;4979184;28;20735;-76
2021/05/14 05:10:22;;;;;;;7.18;2.70;;;11.30;99.90;;;11.85;97.09;99934.78;4979091;28;20227;-76
2021/05/14 05:12:49;;;;;;;8.93;2.92;;;11.30;99.90;;;11.85;97.31;99934.78;4980641;28;20215;-75
2021/05/14 05:15:17;;;;;;;7.03;2.50;;;11.30;99.90;;;11.85;97.45;99929.53;4978939;28;20188;-76
2021/05/14 05:17:44;;;;;;;7.30;2.70;;;11.30;99.90;;;11.89;97.45;99932.84;4971736;28;20207;-77
2021/05/14 05:20:12;;;;;;;7.45;2.60;;;11.30;99.90;;;11.91;97.38;99937.03;4981503;28;20207;-74
2021/05/14 05:22:38;;;;;;;7.63;2.47;;;11.30;99.90;;;11.89;97.15;99931.03;4999587;28;20219;-74
2021/05/14 05:25:06;;;;;;;6.45;2.25;;;11.30;99.90;;;11.89;97.45;99931.03;4979338;28;20267;-74
2021/05/14 05:27:32;;;;;;;7.70;2.75;;;11.40;99.90;;;11.91;97.36;99934.41;4975953;28;20214;-74
2021/05/14 05:29:59;;;;;;;7.57;3.15;;;11.30;99.90;;;11.93;97.77;99937.81;4988839;28;20199;-77
2021/05/14 05:32:25;;;;;;;8.73;3.10;;;11.40;99.90;;;11.92;97.47;99943.13;4991906;28;20830;-75
2021/05/14 05:34:52;;;;;;;8.45;2.92;;;11.30;99.90;;;11.88;97.61;99934.59;4975677;28;20203;-74
2021/05/14 05:37:21;;;;;;;8.63;3.17;;;11.30;99.90;;;11.87;97.57;99940.75;4973392;28;20195;-75
2021/05/14 05:39:47;;;;;;;8.63;3.13;;;11.30;99.90;;;11.87;97.48;99947.78;4975188;28;20215;-75
2021/05/14 05:42:13;;;;;;;6.97;2.60;;;11.30;99.90;;;11.84;97.51;99954.03;4976037;28;20227;-75
2021/05/14 05:44:40;;;;;;;7.70;2.60;;;11.30;99.90;;;11.83;97.74;99949.75;4978404;28;20210;-76
2021/05/14 05:47:06;;;;;;;6.95;2.45;;;11.30;99.90;;;11.84;97.45;99948.78;4971330;28;20742;-76
2021/05/14 05:49:33;;;;;;;7.38;2.60;;;11.30;99.90;;;11.87;97.57;99948.63;4991360;28;20207;-75
2021/05/14 05:52:00;;;;;;;6.18;2.35;;;11.30;99.90;;;11.92;97.83;99954.44;4979194;28;20234;-76
2021/05/14 05:54:27;;;;;;;7.20;2.60;;;11.40;99.90;;;11.95;97.48;99964.78;4988068;28;20243;-75
2021/05/14 05:56:57;;;;;;;9.60;2.72;;;11.40;99.90;;;11.96;97.38;99963.00;4991695;28;20199;-77
2021/05/14 05:59:24;;;;;;;6.70;2.63;;;11.40;99.90;;;11.94;97.53;99960.47;4994534;28;20188;-75
2021/05/14 06:01:50;;;;;;;7.20;2.38;;;11.40;99.90;;;11.94;97.44;99959.63;4997426;28;20259;-75
2021/05/14 06:04:17;;;;;;;6.50;2.65;;;11.40;99.90;;;11.94;97.29;99965.72;4999098;28;20225;-74
2021/05/14 06:06:43;;;;;;;9.10;2.92;;;11.40;99.90;;;11.94;97.39;99968.31;4986035;28;20299;-75
2021/05/14 06:09:11;;;;;;;7.47;2.20;;;11.40;99.90;;;11.95;97.23;99971.81;4985312;28;20203;-75
2021/05/14 06:11:37;;;;;;;7.65;2.40;;;11.40;99.90;;;11.96;97.15;99966.47;4975540;28;20211;-75
2021/05/14 06:14:04;;;;;;;7.28;2.75;;;11.40;99.90;;;11.98;97.29;99969.88;4975806;28;20246;-74
2021/05/14 06:16:30;;;;;;;7.93;2.67;;;11.40;99.90;;;12.00;97.13;99970.63;4973579;28;20985;-74
2021/05/14 06:19:02;;;;;;;6.75;2.80;;;11.50;99.90;;;12.01;97.39;99963.59;4973692;28;20196;-75
2021/05/14 06:21:28;;;;;;;8.80;2.75;;;11.50;99.90;;;12.05;97.44;99965.13;4968720;28;20200;-74
2021/05/14 06:23:54;;;;;;;7.45;2.75;;;11.50;99.90;;;12.06;97.16;99966.81;4969259;28;20274;-76
2021/05/14 06:26:21;;;;;;;8.75;2.83;;;11.60;99.90;;;12.04;97.26;99972.13;4969298;28;20207;-74
2021/05/14 06:28:48;;;;;;;8.23;3.15;;;11.60;99.90;;;11.97;97.18;99972.56;4973345;28;20192;-76
2021/05/14 06:31:14;;;;;;;9.57;3.50;;;11.50;99.90;;;11.86;97.40;99978.41;4987734;28;20222;-74
2021/05/14 06:33:40;;;;;;;9.45;3.63;;;11.40;99.90;;;11.82;97.52;99976.88;4975230;28;20266;-76
2021/05/14 06:36:07;;;;;;;9.57;3.60;;;11.40;99.90;;;11.80;97.69;99976.13;4974909;28;20666;-75
2021/05/14 06:38:33;;;;;;;10.48;4.25;;;11.40;99.90;;;11.73;97.71;99974.75;4974630;28;21531;-76
2021/05/14 06:41:00;;;;;;;11.77;4.40;;;11.30;99.90;;;11.69;97.66;99983.72;4975273;28;20207;-76
2021/05/14 06:43:27;;;;;;;10.43;4.20;;;11.30;99.90;;;11.68;97.58;99984.66;4972956;28;20231;-74
2021/05/14 06:45:54;;;;;;;10.40;3.80;;;11.20;99.90;;;11.66;97.70;99986.50;4969609;28;20200;-74
2021/05/14 06:48:20;;;;;;;11.27;4.50;;;11.20;99.90;;;11.64;97.66;99983.09;4972862;28;20201;-74
2021/05/14 06:50:46;;;;;;;12.23;4.30;;;11.20;99.90;;;11.63;97.85;99984.00;4984705;28;20199;-76
2021/05/14 06:53:13;;;;;;;11.27;3.85;;;11.20;99.90;;;11.64;97.60;99993.59;4972088;28;20211;-75
2021/05/14 06:55:39;;;;;;;10.27;3.50;;;11.20;99.90;;;11.62;97.63;99990.16;4974503;28;20215;-76
2021/05/14 06:58:06;;;;;;;11.38;4.10;;;11.20;99.90;;;11.66;97.89;99991.75;4975981;28;20267;-75
2021/05/14 07:00:33;;;;;;;8.93;3.20;;;11.20;99.90;;;11.69;97.69;99996.81;4990552;28;20195;-74
2021/05/14 07:02:59;;;;;;;8.63;3.38;;;11.20;99.90;;;11.75;97.59;99996.50;4974590;28;20231;-75
2021/05/14 07:05:26;;;;;;;9.75;3.53;;;11.30;99.90;;;11.80;97.41;99998.88;4971597;28;20246;-73
2021/05/14 07:07:53;;;;;;;8.60;3.30;;;11.30;99.90;;;11.84;97.31;100003.84;4980739;28;20197;-75
2021/05/14 07:10:20;;;;;;;8.07;3.00;;;11.30;99.90;;;11.87;97.06;100002.84;4976398;28;20195;-75
2021/05/14 07:12:46;;;;;;;8.25;3.03;;;11.40;99.90;;;11.88;97.06;100012.41;4968285;28;20219;-74
2021/05/14 07:15:13;;;;;;;7.22;2.75;;;11.40;99.90;;;11.82;96.42;100013.56;4974513;28;20202;-74
2021/05/14 07:17:41;;;;;;;8.05;2.60;;;11.40;99.90;;;11.79;96.63;100005.88;4987592;28;20231;-75
2021/05/14 07:20:08;;;;;;;7.72;2.90;;;11.40;99.90;;;11.86;96.72;100009.84;4974793;28;20196;-78
2021/05/14 07:22:36;;;;;;;8.15;2.80;;;11.40;99.90;;;11.94;96.51;100006.84;4988954;28;20598;-76
2021/05/14 07:25:03;;;;;;;8.65;2.97;;;11.50;99.90;;;12.00;96.31;100012.59;4968314;28;20195;-77
2021/05/14 07:27:30;;;;;;;7.95;2.78;;;11.60;99.90;;;12.03;96.00;100012.41;4973358;28;20203;-81
2021/05/14 07:29:56;;;;;;;6.68;2.47;;;11.60;99.90;;;12.03;95.71;100016.81;4972113;28;20290;-75
2021/05/14 07:32:22;;;;;;;7.45;2.47;;;11.60;99.90;;;12.04;95.60;100019.34;4988719;28;20212;-74
2021/05/14 07:34:52;;;;;;;7.75;2.83;;;11.60;99.90;;;12.04;95.44;100026.38;4972722;28;20206;-75
2021/05/14 07:37:18;;;;;;;5.75;2.00;;;11.60;99.90;;;12.04;95.40;100019.34;4988509;28;20349;-75
2021/05/14 07:39:45;;;;;;;6.28;2.33;;;11.60;99.90;;;12.04;95.09;100024.59;4976409;28;20199;-76
2021/05/14 07:42:12;;;;;;;5.18;2.10;;;11.60;99.90;;;12.04;95.10;100023.75;4977121;28;20211;-76
2021/05/14 07:44:38;;;;;;;8.80;2.10;;;11.60;99.90;;;11.99;95.10;100020.53;4972078;28;20242;-72
2021/05/14 07:47:05;;;;;;;5.63;1.90;;;11.60;99.90;;;11.97;94.83;100027.63;4974613;28;20192;-76
2021/05/14 07:49:33;;;;;;;5.15;1.80;;;11.60;99.90;;;11.97;94.94;100033.72;4974394;28;20290;-76
2021/05/14 07:52:00;;;;;;;4.40;1.85;;;11.50;99.90;;;11.97;94.56;100033.72;4977038;28;20199;-77
2021/05/14 07:54:26;;;;;;;4.10;1.70;;;11.50;99.90;;;11.99;94.57;100036.28;4972940;28;20195;-75
2021/05/14 07:56:52;;;;;;;8.82;2.22;;;11.60;99.90;;;12.02;94.79;100036.94;4992430;28;20200;-77
2021/05/14 07:59:19;;;;;;;5.95;1.83;;;11.60;99.90;;;12.03;94.64;100038.63;4974881;28;20242;-76
2021/05/14 08:01:45;;;;;;;4.65;1.67;;;11.60;99.90;;;12.02;94.41;100039.56;4985015;28;20199;-75
2021/05/14 08:04:12;;;;;;;4.32;1.60;;;11.60;99.90;;;12.00;94.33;100046.69;4982320;28;20724;-77
2021/05/14 08:06:38;;;;;;;4.75;1.50;;;11.60;99.90;;;11.99;94.05;100050.22;4973499;28;20562;-75
2021/05/14 08:09:06;;;;;;;3.97;1.60;;;11.60;99.90;;;12.01;94.04;100047.50;4977636;28;20209;-74
2021/05/14 08:11:32;;;;;;;5.13;1.65;;;11.60;99.90;;;12.02;93.72;100044.78;4969731;28;20664;-77
2021/05/14 08:13:59;;;;;;;6.30;1.95;;;11.60;99.90;;;12.02;93.92;100047.41;4962972;28;20226;-75
2021/05/14 08:16:25;;;;;;;5.57;1.70;;;11.60;99.90;;;12.06;93.89;100055.97;4970197;28;20191;-78
2021/05/14 08:18:52;;;;;;;4.45;1.50;;;11.70;99.90;;;12.05;93.92;100051.66;4965431;28;20214;-76
2021/05/14 08:21:19;;;;;;;4.38;1.60;;;11.70;99.90;;;12.03;93.72;100043.88;4973626;28;20730;-75
2021/05/14 08:23:46;;;;;;;3.75;1.50;;;11.70;99.90;;;11.97;93.70;100053.84;4970327;28;20838;-76
2021/05/14 08:26:13;;;;;;;4.20;1.50;;;11.60;99.90;;;11.97;93.72;100051.25;4970686;28;20195;-76
2021/05/14 08:28:40;;;;;;;6.80;1.60;;;11.60;99.90;;;11.96;93.85;100052.16;4973103;28;20291;-77
2021/05/14 08:31:07;;;;;;;4.30;1.40;;;11.60;99.90;;;11.93;93.97;100047.06;4971721;28;20607;-78
2021/05/14 08:33:33;;;;;;;5.18;1.63;;;11.60;99.90;;;11.93;94.03;100053.19;4972563;28;20207;-78
2021/05/14 08:36:02;;;;;;;5.78;1.63;;;11.60;99.90;;;11.94;93.68;100057.47;4969638;28;20203;-76
2021/05/14 08:38:29;;;;;;;4.38;1.50;;;11.60;99.90;;;11.90;94.10;100058.59;4972050;28;21162;-75
2021/05/14 08:40:56;;;;;;;6.50;1.90;;;11.50;99.90;;;11.88;94.34;100060.44;4973332;28;20199;-76
2021/05/14 08:43:23;;;;;;;4.15;1.75;;;11.50;99.90;;;11.89;94.27;100056.88;4960272;28;20219;-77
2021/05/14 08:45:50;;;;;;;7.47;1.70;;;11.50;99.90;;;11.90;94.40;100063.84;4973990;28;20279;-78
2021/05/14 08:48:18;;;;;;;7.20;1.90;;;11.50;99.90;;;11.90;94.46;100063.84;4974386;28;20195;-78
2021/05/14 08:50:46;;;;;;;8.95;2.58;;;11.50;99.90;;;11.89;94.35;100069.16;4971970;28;20262;-77
2021/05/14 08:53:12;;;;;;;6.78;2.25;;;11.40;99.90;;;11.86;94.15;100075.41;4971773;28;20238;-75
2021/05/14 08:55:39;;;;;;;9.40;2.33;;;11.40;99.90;;;11.85;94.21;100080.72;4971693;28;20197;-77
2021/05/14 08:58:05;;;;;;;7.18;2.42;;;11.40;99.90;;;11.85;94.19;100076.34;4992773;28;20200;-75
2021/05/14 09:00:33;;;;;;;8.52;2.47;;;11.40;99.90;;;11.98;94.53;100071.28;4978368;28;20196;-78
2021/05/14 09:02:59;;;;;;;6.90;2.00;;;11.50;99.90;;;12.04;94.32;100081.44;4977093;28;20301;-72
2021/05/14 09:05:32;;;;;;;4.65;1.70;;;11.60;99.90;;;12.03;93.75;100085.84;4967401;28;21738;-73
2021/05/14 09:08:02;;;;;;;5.70;1.80;;;11.50;99.90;;;11.94;93.32;100077.63;4965559;28;20235;-74
2021/05/14 09:10:32;;;;;;;5.45;1.60;;;11.50;99.90;;;11.85;92.93;100094.69;4972520;28;20192;-74
2021/05/14 09:12:59;;;;;;;3.50;1.42;;;11.40;99.90;;;11.83;92.99;100090.44;4989093;28;20223;-73
2021/05/14 09:15:29;;;;;;;6.22;2.10;;;11.40;99.90;;;11.83;92.79;100100.94;4985283;28;20195;-74
2021/05/14 09:18:15;;;;;;;6.93;2.10;;;11.30;99.90;;;11.84;92.54;100098.22;4971990;28;20278;-73
2021/05/14 09:20:46;;;;;;;5.47;2.17;;;11.30;99.90;;;11.86;92.37;100103.38;4982075;28;20199;-75
2021/05/14 09:23:34;;;;;;;6.53;2.30;;;11.30;99.90;;;11.82;92.45;100109.72;4971753;28;20253;-76
2021/05/14 09:26:03;;;;;;;8.48;2.50;;;11.30;99.90;;;11.71;92.23;100112.06;4977034;28;20199;-75
2021/05/14 09:28:32;;;;;;;7.38;2.60;;;11.20;99.90;;;11.67;92.32;100113.97;5005520;28;20215;-77
2021/05/14 09:31:13;;;;;;;9.20;2.30;;;11.10;99.90;;;11.68;92.37;100118.31;5005016;28;20191;-77
2021/05/14 09:33:43;;;;;;;7.15;2.40;;;11.20;99.90;;;11.75;92.36;100114.47;5004768;28;20226;-79
2021/05/14 09:36:11;;;;;;;9.77;2.22;;;11.20;99.90;;;11.80;92.18;100115.06;4995700;28;20187;-79
2021/05/14 09:38:44;;;;;;;8.90;2.20;;;11.20;99.90;;;11.88;92.08;100115.50;4989619;28;20211;-79
2021/05/14 09:41:33;;;;;;;8.13;2.50;;;11.30;99.90;;;11.98;91.82;100119.34;4991706;28;20207;-76
2021/05/14 09:44:06;;;;;;;7.70;2.05;;;11.40;99.90;;;12.03;91.40;100121.69;4984447;28;20219;-75
2021/05/14 09:46:37;;;;;;;3.85;1.70;;;11.40;99.90;;;11.96;90.30;100121.19;4983360;28;20199;-72
2021/05/14 09:49:08;;;;;;;7.43;2.10;;;11.40;99.90;;;11.95;90.11;100123.88;4988749;28;20206;-72
2021/05/14 09:51:45;;;;;;;7.20;1.80;;;11.40;99.90;;;11.98;89.53;100128.97;4971518;28;20195;-74
2021/05/14 09:54:27;;;;;;;14.55;2.10;;;11.40;99.90;;;11.97;88.94;100122.03;4978661;28;20237;-74
2021/05/14 09:57:17;;;;;;;5.75;1.58;;;11.40;99.90;;;11.99;88.33;100121.00;4983150;28;20239;-74
2021/05/14 09:59:45;;;;;;;8.55;2.03;;;11.40;99.90;;;12.01;87.96;100127.03;4977826;28;20203;-74
2021/05/14 10:02:21;;;;;;;7.18;1.98;;;11.40;99.90;;;12.05;87.40;100133.81;4987638;28;20222;-74
2021/05/14 10:04:49;;;;;;;6.75;1.95;;;11.40;99.90;;;11.98;87.06;100140.31;4972432;28;20198;-73
2021/05/14 10:07:17;;;;;;;5.88;1.77;;;11.40;99.90;;;11.98;86.56;100131.59;4971285;28;20191;-78
2021/05/14 10:09:47;;;;;;;8.48;2.70;;;11.40;99.90;;;11.98;86.51;100127.19;4973753;28;20234;-77
2021/05/14 10:12:17;;;;;;;11.90;4.50;;;11.30;99.90;;;12.02;86.66;100131.34;4971630;28;20476;-77
2021/05/14 10:14:45;;;;;;;9.23;2.58;;;11.40;99.90;;;12.07;86.44;100139.81;4989937;28;20214;-74
2021/05/14 10:17:11;;;;;;;8.77;2.95;;;11.50;99.90;;;12.08;86.18;100130.16;4978504;28;20199;-72
2021/05/14 10:19:41;;;;;;;8.07;2.70;;;11.50;99.90;;;12.08;86.08;100140.66;4989061;28;20738;-75